createdAt,value
2022-10-25T00:00:24.105Z,98261.00
2022-10-25T00:02:50.454Z,98258.03
2022-10-25T00:05:17.044Z,98259.44
2022-10-25T00:07:43.602Z,98259.06
2022-10-25T00:10:10.127Z,98257.25
2022-10-25T00:12:42.869Z,98262.72
2022-10-25T00:15:09.989Z,98257.59
2022-10-25T00:17:36.396Z,98270.72
2022-10-25T00:20:02.927Z,98265.63
2022-10-25T00:22:29.325Z,98261.63
2022-10-25T00:24:55.687Z,98261.22
2022-10-25T00:27:22.742Z,98259.06
2022-10-25T00:29:49.144Z,98272.47
2022-10-25T00:32:15.532Z,98268.03
2022-10-25T00:34:41.925Z,98269.47
2022-10-25T00:37:08.283Z,98267.25
2022-10-25T00:39:34.627Z,98265.69
2022-10-25T00:42:01.149Z,98276.22
2022-10-25T00:44:36.691Z,98266.72
2022-10-25T00:47:09.275Z,98274.69
2022-10-25T00:49:35.652Z,98276.13
2022-10-25T00:52:05.220Z,98286.63
2022-10-25T00:54:36.023Z,98281.53
2022-10-25T00:57:10.470Z,98282.63
2022-10-25T00:59:37.676Z,98276.44
2022-10-25T01:02:04.493Z,98276.84
2022-10-25T01:04:33.450Z,98280.19
2022-10-25T01:07:01.465Z,98275.03
2022-10-25T01:09:30.850Z,98277.88
2022-10-25T01:11:57.428Z,98280.00
2022-10-25T01:14:23.921Z,98274.25
2022-10-25T01:17:30.337Z,98275.53
2022-10-25T01:20:11.631Z,98274.03
2022-10-25T01:22:40.541Z,98271.81
2022-10-25T01:25:29.391Z,98263.44
2022-10-25T01:28:04.860Z,98258.38
2022-10-25T01:31:04.578Z,98262.00
2022-10-25T01:33:36.865Z,98253.28
2022-10-25T01:36:06.158Z,98254.63
2022-10-25T01:38:54.420Z,98251.34
2022-10-25T01:41:43.507Z,98251.72
2022-10-25T01:44:27.877Z,98259.75
2022-10-25T01:47:21.810Z,98255.81
2022-10-25T01:50:07.968Z,98259.09
2022-10-25T01:52:34.405Z,98256.22
2022-10-25T01:55:01.316Z,98251.91
2022-10-25T01:58:00.400Z,98251.16
2022-10-25T02:00:27.589Z,98251.47
2022-10-25T02:03:09.823Z,98251.41
2022-10-25T02:06:13.765Z,98247.03
2022-10-25T02:08:41.904Z,98259.38
2022-10-25T02:11:16.347Z,98253.16
2022-10-25T02:13:53.688Z,98248.50
2022-10-25T02:16:24.375Z,98256.44
2022-10-25T02:18:55.586Z,98257.25
2022-10-25T02:21:23.977Z,98262.72
2022-10-25T02:23:51.335Z,98256.88
2022-10-25T02:26:19.035Z,98264.63
2022-10-25T02:28:46.973Z,98262.16
2022-10-25T02:31:16.995Z,98262.91
2022-10-25T02:33:47.806Z,98265.13
2022-10-25T02:36:24.363Z,98254.94
2022-10-25T02:38:52.705Z,98255.59
2022-10-25T02:41:20.992Z,98258.25
2022-10-25T02:43:47.912Z,98257.34
2022-10-25T02:46:17.957Z,98267.69
2022-10-25T02:48:44.907Z,98269.78
2022-10-25T02:51:12.358Z,98261.75
2022-10-25T02:53:38.874Z,98264.66
2022-10-25T02:56:08.172Z,98263.69
2022-10-25T02:58:36.846Z,98262.34
2022-10-25T03:01:04.775Z,98249.41
2022-10-25T03:03:31.399Z,98260.34
2022-10-25T03:05:58.199Z,98253.16
2022-10-25T03:08:25.200Z,98259.75
2022-10-25T03:10:51.628Z,98266.66
2022-10-25T03:13:18.143Z,98267.81
2022-10-25T03:15:45.508Z,98261.22
2022-10-25T03:18:13.073Z,98259.06
2022-10-25T03:20:39.664Z,98268.66
2022-10-25T03:23:06.579Z,98268.66
2022-10-25T03:25:33.254Z,98269.44
2022-10-25T03:28:02.790Z,98267.22
2022-10-25T03:30:30.181Z,98273.38
2022-10-25T03:32:57.456Z,98273.38
2022-10-25T03:35:24.675Z,98274.53
2022-10-25T03:37:52.049Z,98284.41
2022-10-25T03:40:19.600Z,98285.06
2022-10-25T03:42:46.493Z,98278.41
2022-10-25T03:45:13.192Z,98275.38
2022-10-25T03:47:39.875Z,98285.22
2022-10-25T03:50:07.474Z,98278.78
2022-10-25T03:52:34.234Z,98285.75
2022-10-25T03:55:00.644Z,98286.91
2022-10-25T03:57:27.024Z,98286.56
2022-10-25T03:59:53.377Z,98288.69
2022-10-25T04:02:19.725Z,98295.25
2022-10-25T04:04:46.106Z,98291.25
2022-10-25T04:07:12.481Z,98289.81
2022-10-25T04:09:38.908Z,98296.78
2022-10-25T04:12:05.412Z,98293.50
2022-10-25T04:14:31.777Z,98297.84
2022-10-25T04:16:58.118Z,98299.59
2022-10-25T04:19:24.476Z,98301.88
2022-10-25T04:21:50.944Z,98297.44
2022-10-25T04:24:17.487Z,98291.84
2022-10-25T04:26:44.022Z,98300.91
2022-10-25T04:29:11.378Z,98305.22
2022-10-25T04:31:37.709Z,98304.59
2022-10-25T04:34:04.139Z,98298.38
2022-10-25T04:36:30.786Z,98304.16
2022-10-25T04:38:57.333Z,98310.00
2022-10-25T04:41:23.765Z,98312.53
2022-10-25T04:43:51.680Z,98317.59
2022-10-25T04:46:19.178Z,98313.19
2022-10-25T04:48:45.475Z,98326.63
2022-10-25T04:51:12.823Z,98327.31
2022-10-25T04:53:39.426Z,98332.41
2022-10-25T04:56:08.477Z,98328.34
2022-10-25T04:58:35.995Z,98327.81
2022-10-25T05:01:10.216Z,98329.50
2022-10-25T05:03:37.078Z,98331.97
2022-10-25T05:06:12.603Z,98330.78
2022-10-25T05:08:40.693Z,98334.81
2022-10-25T05:11:08.507Z,98338.34
2022-10-25T05:13:36.448Z,98336.91
2022-10-25T05:16:03.822Z,98342.28
2022-10-25T05:18:32.044Z,98340.47
2022-10-25T05:21:00.800Z,98335.34
2022-10-25T05:23:28.048Z,98344.47
2022-10-25T05:26:01.857Z,98347.00
2022-10-25T05:28:28.245Z,98349.09
2022-10-25T05:30:54.631Z,98347.34
2022-10-25T05:33:20.964Z,98343.03
2022-10-25T05:35:47.354Z,98346.56
2022-10-25T05:38:13.756Z,98353.06
2022-10-25T05:40:40.324Z,98352.34
2022-10-25T05:43:06.700Z,98351.31
2022-10-25T05:45:33.312Z,98355.25
2022-10-25T05:47:59.668Z,98363.66
2022-10-25T05:50:26.077Z,98360.81
2022-10-25T05:52:53.237Z,98366.94
2022-10-25T05:55:19.623Z,98364.38
2022-10-25T05:57:51.579Z,98372.78
2022-10-25T06:00:18.306Z,98377.59
2022-10-25T06:02:44.810Z,98378.66
2022-10-25T06:05:11.372Z,98377.22
2022-10-25T06:07:37.729Z,98379.41
2022-10-25T06:10:09.552Z,98388.16
2022-10-25T06:12:36.854Z,98386.78
2022-10-25T06:15:03.401Z,98388.25
2022-10-25T06:17:29.779Z,98382.41
2022-10-25T06:19:56.144Z,98399.94
2022-10-25T06:22:22.557Z,98392.63
2022-10-25T06:24:48.916Z,98397.94
2022-10-25T06:27:15.309Z,98403.78
2022-10-25T06:29:41.682Z,98410.13
2022-10-25T06:32:08.058Z,98406.84
2022-10-25T06:34:34.437Z,98416.81
2022-10-25T06:37:00.825Z,98411.44
2022-10-25T06:39:27.189Z,98408.66
2022-10-25T06:41:53.556Z,98412.06
2022-10-25T06:44:19.889Z,98416.59
2022-10-25T06:47:15.800Z,98418.25
2022-10-25T06:49:32.587Z,98414.94
2022-10-25T06:51:58.991Z,98413.88
2022-10-25T06:54:26.753Z,98408.38
2022-10-25T06:56:53.199Z,98410.97
2022-10-25T06:59:20.437Z,98407.50
2022-10-25T07:01:47.482Z,98418.47
2022-10-25T07:04:14.027Z,98407.53
2022-10-25T07:06:40.431Z,98410.13
2022-10-25T07:09:09.295Z,98408.66
2022-10-25T07:11:36.046Z,98411.97
2022-10-25T07:14:04.246Z,98400.78
2022-10-25T07:16:30.812Z,98413.59
2022-10-25T07:19:01.916Z,98409.72
2022-10-25T07:21:30.145Z,98412.25
2022-10-25T07:23:56.716Z,98410.06
2022-10-25T07:26:36.708Z,98410.78
2022-10-25T07:29:04.074Z,98418.47
2022-10-25T07:31:32.632Z,98419.13
2022-10-25T07:34:01.221Z,98418.31
2022-10-25T07:36:27.785Z,98419.25
2022-10-25T07:38:54.684Z,98427.84
2022-10-25T07:41:21.043Z,98416.25
2022-10-25T07:43:47.375Z,98410.50
2022-10-25T07:46:13.976Z,98413.13
2022-10-25T07:48:40.396Z,98411.41
2022-10-25T07:51:10.077Z,98411.25
2022-10-25T07:53:36.438Z,98412.06
2022-10-25T07:56:03.017Z,98410.41
2022-10-25T07:58:29.466Z,98398.75
2022-10-25T08:01:07.382Z,98415.22
2022-10-25T08:03:34.131Z,98414.19
2022-10-25T08:06:01.037Z,98419.81
2022-10-25T08:08:27.794Z,98410.06
2022-10-25T08:10:54.669Z,98410.81
2022-10-25T08:13:21.464Z,98419.91
2022-10-25T08:15:55.402Z,98414.25
2022-10-25T08:18:23.392Z,98413.81
2022-10-25T08:21:01.935Z,98420.41
2022-10-25T08:23:31.216Z,98425.59
2022-10-25T08:25:57.765Z,98420.03
2022-10-25T08:28:24.118Z,98426.19
2022-10-25T08:30:50.585Z,98424.88
2022-10-25T08:33:16.997Z,98423.78
2022-10-25T08:35:43.355Z,98424.38
2022-10-25T08:38:09.733Z,98432.78
2022-10-25T08:40:36.046Z,98431.88
2022-10-25T08:43:12.541Z,98429.13
2022-10-25T08:45:51.260Z,98420.84
2022-10-25T08:48:24.315Z,98424.59
2022-10-25T08:50:53.569Z,98420.50
2022-10-25T08:53:28.079Z,98431.28
2022-10-25T08:56:15.224Z,98430.94
2022-10-25T08:58:49.558Z,98428.50
2022-10-25T09:01:26.491Z,98428.72
2022-10-25T09:03:52.965Z,98435.84
2022-10-25T09:06:22.267Z,98441.16
2022-10-25T09:09:06.922Z,98442.00
2022-10-25T09:11:53.283Z,98449.84
2022-10-25T09:14:31.802Z,98455.00
2022-10-25T09:17:13.433Z,98459.03
2022-10-25T09:19:50.758Z,98455.72
2022-10-25T09:22:31.386Z,98453.19
2022-10-25T09:25:08.188Z,98458.34
2022-10-25T09:27:34.807Z,98467.53
2022-10-25T09:30:10.166Z,98463.47
2022-10-25T09:32:40.170Z,98469.72
2022-10-25T09:35:16.683Z,98466.44
2022-10-25T09:37:49.858Z,98467.88
2022-10-25T09:40:21.152Z,98479.25
2022-10-25T09:43:02.871Z,98471.59
2022-10-25T09:45:42.046Z,98477.81
2022-10-25T09:48:21.494Z,98473.03
2022-10-25T09:50:53.539Z,98478.91
2022-10-25T09:53:23.095Z,98481.47
2022-10-25T09:55:56.203Z,98484.09
2022-10-25T09:58:30.542Z,98482.22
2022-10-25T10:01:00.321Z,98483.72
2022-10-25T10:03:30.385Z,98489.94
2022-10-25T10:06:00.475Z,98482.59
2022-10-25T10:08:28.279Z,98489.56
2022-10-25T10:10:56.337Z,98490.31
2022-10-25T10:13:42.675Z,98486.28
2022-10-25T10:16:22.527Z,98491.41
2022-10-25T10:18:48.939Z,98482.59
2022-10-25T10:21:22.333Z,98485.56
2022-10-25T10:24:04.705Z,98485.91
2022-10-25T10:26:35.167Z,98477.47
2022-10-25T10:29:18.363Z,98483.69
2022-10-25T10:31:47.632Z,98478.94
2022-10-25T10:34:36.700Z,98481.50
2022-10-25T10:37:21.377Z,98490.31
2022-10-25T10:39:54.110Z,98485.16
2022-10-25T10:42:34.722Z,98494.69
2022-10-25T10:45:01.115Z,98493.22
2022-10-25T10:47:33.515Z,98485.56
2022-10-25T10:50:00.323Z,98489.22
2022-10-25T10:52:35.058Z,98491.03
2022-10-25T10:55:02.070Z,98495.06
2022-10-25T10:57:32.501Z,98488.13
2022-10-25T11:00:00.108Z,98493.25
2022-10-25T11:05:37.501Z,98489.22
2022-10-25T11:08:18.766Z,98496.16
2022-10-25T11:10:45.150Z,98496.53
2022-10-25T11:13:16.944Z,98497.63
2022-10-25T11:16:08.334Z,98495.44
2022-10-25T11:18:48.044Z,98495.44
2022-10-25T11:21:28.804Z,98500.56
2022-10-25T11:24:13.685Z,98503.88
2022-10-25T11:26:55.363Z,98505.31
2022-10-25T11:29:55.929Z,98503.47
2022-10-25T11:33:04.046Z,98504.56
2022-10-25T11:35:44.569Z,98505.31
2022-10-25T11:38:59.612Z,98507.13
2022-10-25T11:41:45.129Z,98505.34
2022-10-25T11:44:45.637Z,98506.00
2022-10-25T11:47:43.074Z,98512.59
2022-10-25T11:50:33.380Z,98513.31
2022-10-25T11:53:23.969Z,98513.28
2022-10-25T11:55:55.370Z,98515.13
2022-10-25T11:58:39.282Z,98518.78
2022-10-25T12:01:14.852Z,98509.94
2022-10-25T12:04:18.197Z,98511.78
2022-10-25T12:07:05.888Z,98513.97
2022-10-25T12:10:09.005Z,98497.84
2022-10-25T12:12:50.127Z,98510.31
2022-10-25T12:15:23.041Z,98506.97
2022-10-25T12:17:51.570Z,98499.66
2022-10-25T12:20:24.076Z,98499.69
2022-10-25T12:22:53.388Z,98506.59
2022-10-25T12:25:43.021Z,98507.34
2022-10-25T12:28:24.366Z,98495.22
2022-10-25T12:30:56.829Z,98506.56
2022-10-25T12:33:35.313Z,98509.09
2022-10-25T12:36:15.223Z,98502.88
2022-10-25T12:38:42.726Z,98499.88
2022-10-25T12:41:23.445Z,98495.59
2022-10-25T12:44:17.503Z,98504.44
2022-10-25T12:47:05.639Z,98505.50
2022-10-25T12:49:54.117Z,98507.75
2022-10-25T12:52:30.693Z,98511.03
2022-10-25T12:55:19.064Z,98508.13
2022-10-25T12:57:54.888Z,98508.84
2022-10-25T13:00:23.788Z,98502.25
2022-10-25T13:03:19.430Z,98513.63
2022-10-25T13:06:10.669Z,98510.31
2022-10-25T13:08:40.021Z,98504.09
2022-10-25T13:11:08.454Z,98504.81
2022-10-25T13:13:39.630Z,98507.78
2022-10-25T13:16:09.513Z,98514.41
2022-10-25T13:18:44.716Z,98517.72
2022-10-25T13:21:16.303Z,98516.66
2022-10-25T13:23:42.658Z,98522.53
2022-10-25T13:26:15.660Z,98529.50
2022-10-25T13:28:49.170Z,98525.44
2022-10-25T13:31:33.848Z,98534.63
2022-10-25T13:34:12.484Z,98533.91
2022-10-25T13:36:55.629Z,98531.69
2022-10-25T13:39:44.598Z,98533.50
2022-10-25T13:42:26.130Z,98539.38
2022-10-25T13:44:58.135Z,98533.88
2022-10-25T13:47:46.017Z,98544.09
2022-10-25T13:50:27.589Z,98534.94
2022-10-25T13:53:05.122Z,98537.13
2022-10-25T13:55:35.918Z,98545.91
2022-10-25T13:58:22.563Z,98547.00
2022-10-25T14:00:52.975Z,98538.63
2022-10-25T14:03:20.893Z,98546.31
2022-10-25T14:05:53.296Z,98540.44
2022-10-25T14:08:25.273Z,98541.91
2022-10-25T14:10:52.594Z,98542.25
2022-10-25T14:13:28.127Z,98539.34
2022-10-25T14:16:03.125Z,98545.53
2022-10-25T14:18:30.881Z,98548.09
2022-10-25T14:21:00.979Z,98556.91
2022-10-25T14:23:32.372Z,98561.66
2022-10-25T14:26:00.405Z,98570.41
2022-10-25T14:28:29.297Z,98567.47
2022-10-25T14:30:58.102Z,98564.47
2022-10-25T14:33:24.616Z,98567.38
2022-10-25T14:35:57.655Z,98563.31
2022-10-25T14:38:27.604Z,98566.91
2022-10-25T14:40:59.743Z,98560.31
2022-10-25T14:43:31.605Z,98563.63
2022-10-25T14:46:03.931Z,98567.25
2022-10-25T14:48:30.581Z,98561.38
2022-10-25T14:51:00.306Z,98560.25
2022-10-25T14:53:28.514Z,98563.91
2022-10-25T14:56:05.615Z,98562.06
2022-10-25T14:58:43.020Z,98557.63
2022-10-25T15:01:11.757Z,98553.25
2022-10-25T15:03:44.430Z,98557.22
2022-10-25T15:06:13.162Z,98559.75
2022-10-25T15:08:40.984Z,98556.84
2022-10-25T15:11:13.478Z,98557.94
2022-10-25T15:13:43.349Z,98566.69
2022-10-25T15:16:30.522Z,98564.13
2022-10-25T15:19:07.528Z,98567.75
2022-10-25T15:21:47.553Z,98561.91
2022-10-25T15:24:21.481Z,98576.56
2022-10-25T15:27:02.392Z,98565.53
2022-10-25T15:32:20.272Z,98562.91
2022-10-25T15:34:49.403Z,98561.00
2022-10-25T15:37:17.696Z,98565.75
2022-10-25T15:39:47.305Z,98560.94
2022-10-25T15:42:15.510Z,98564.59
2022-10-25T15:44:42.351Z,98564.53
2022-10-25T15:47:31.677Z,98558.28
2022-10-25T15:49:59.390Z,98561.53
2022-10-25T15:52:25.943Z,98557.78
2022-10-25T15:54:52.605Z,98560.28
2022-10-25T15:57:19.110Z,98563.88
2022-10-25T15:59:45.735Z,98564.56
2022-10-25T16:02:34.996Z,98561.16
2022-10-25T16:05:01.391Z,98569.50
2022-10-25T16:07:27.981Z,98577.50
2022-10-25T16:09:54.386Z,98573.34
2022-10-25T16:12:26.755Z,98572.19
2022-10-25T16:14:53.221Z,98577.22
2022-10-25T16:17:19.607Z,98577.88
2022-10-25T16:19:45.953Z,98578.53
2022-10-25T16:22:12.337Z,98576.53
2022-10-25T16:24:38.797Z,98585.22
2022-10-25T16:27:05.321Z,98577.00
2022-10-25T16:29:31.720Z,98581.34
2022-10-25T16:31:58.155Z,98583.84
2022-10-25T16:34:24.568Z,98580.09
2022-10-25T16:36:52.480Z,98585.53
2022-10-25T16:39:18.893Z,98592.06
2022-10-25T16:41:46.401Z,98592.47
2022-10-25T16:44:13.531Z,98595.22
2022-10-25T16:46:40.067Z,98590.94
2022-10-25T16:49:09.689Z,98590.91
2022-10-25T16:51:37.411Z,98594.81
2022-10-25T16:54:04.726Z,98602.72
2022-10-25T16:56:31.229Z,98601.53
2022-10-25T16:58:57.613Z,98611.31
2022-10-25T17:01:35.002Z,98605.38
2022-10-25T17:04:08.002Z,98604.50
2022-10-25T17:06:42.708Z,98603.28
2022-10-25T17:09:09.644Z,98613.16
2022-10-25T17:11:37.171Z,98616.03
2022-10-25T17:14:03.976Z,98617.69
2022-10-25T17:16:30.391Z,98624.78
2022-10-25T17:18:57.307Z,98627.03
2022-10-25T17:21:23.856Z,98629.19
2022-10-25T17:23:50.199Z,98631.38
2022-10-25T17:26:16.689Z,98630.63
2022-10-25T17:28:44.460Z,98629.31
2022-10-25T17:31:12.919Z,98634.84
2022-10-25T17:33:40.333Z,98641.19
2022-10-25T17:36:11.993Z,98629.28
2022-10-25T17:38:38.480Z,98637.03
2022-10-25T17:41:05.605Z,98637.28
2022-10-25T17:43:33.726Z,98648.13
2022-10-25T17:46:02.180Z,98646.47
2022-10-25T17:48:29.558Z,98651.53
2022-10-25T17:51:04.360Z,98651.28
2022-10-25T17:53:30.969Z,98658.84
2022-10-25T17:55:57.358Z,98650.81
2022-10-25T17:58:23.853Z,98651.75
2022-10-25T18:00:50.560Z,98648.00
2022-10-25T18:03:16.970Z,98646.81
2022-10-25T18:05:43.347Z,98657.13
2022-10-25T18:08:09.710Z,98656.94
2022-10-25T18:10:36.079Z,98655.03
2022-10-25T18:13:02.424Z,98649.31
2022-10-25T18:15:29.254Z,98651.91
2022-10-25T18:17:55.615Z,98649.94
2022-10-25T18:20:25.165Z,98646.47
2022-10-25T18:22:52.988Z,98650.81
2022-10-25T18:25:19.817Z,98652.94
2022-10-25T18:27:46.566Z,98650.22
2022-10-25T18:30:13.449Z,98656.59
2022-10-25T18:32:40.000Z,98657.47
2022-10-25T18:35:06.801Z,98658.53
2022-10-25T18:37:33.192Z,98664.06
2022-10-25T18:39:59.664Z,98664.88
2022-10-25T18:42:26.067Z,98673.16
2022-10-25T18:44:52.974Z,98672.88
2022-10-25T18:47:19.325Z,98668.34
2022-10-25T18:49:45.789Z,98661.03
2022-10-25T18:52:12.186Z,98658.38
2022-10-25T18:54:38.607Z,98659.84
2022-10-25T18:57:05.379Z,98659.75
2022-10-25T18:59:31.851Z,98652.97
2022-10-25T19:01:58.467Z,98653.44
2022-10-25T19:04:25.112Z,98658.31
2022-10-25T19:06:51.521Z,98658.06
2022-10-25T19:09:17.974Z,98651.09
2022-10-25T19:11:44.383Z,98658.63
2022-10-25T19:14:10.800Z,98655.91
2022-10-25T19:16:40.955Z,98654.19
2022-10-25T19:19:08.318Z,98652.19
2022-10-25T19:21:35.590Z,98663.00
2022-10-25T19:24:02.117Z,98669.13
2022-10-25T19:26:28.517Z,98655.91
2022-10-25T19:28:57.661Z,98660.56
2022-10-25T19:31:24.584Z,98656.03
2022-10-25T19:33:52.760Z,98656.75
2022-10-25T19:36:19.858Z,98653.69
2022-10-25T19:38:48.749Z,98659.44
2022-10-25T19:41:18.338Z,98655.50
2022-10-25T19:43:45.133Z,98650.63
2022-10-25T19:46:12.585Z,98652.13
2022-10-25T19:48:38.978Z,98661.88
2022-10-25T19:51:07.513Z,98658.41
2022-10-25T19:53:34.133Z,98663.13
2022-10-25T19:56:02.180Z,98665.03
2022-10-25T19:58:29.198Z,98664.28
2022-10-25T20:01:08.893Z,98663.88
2022-10-25T20:03:36.728Z,98671.00
2022-10-25T20:06:08.654Z,98660.69
2022-10-25T20:08:36.878Z,98665.25
2022-10-25T20:11:03.986Z,98658.72
2022-10-25T20:13:30.938Z,98665.25
2022-10-25T20:15:57.516Z,98672.88
2022-10-25T20:18:26.409Z,98671.56
2022-10-25T20:20:58.815Z,98661.75
2022-10-25T20:23:25.212Z,98670.13
2022-10-25T20:25:51.572Z,98669.13
2022-10-25T20:28:18.451Z,98684.91
2022-10-25T20:30:44.838Z,98689.97
2022-10-25T20:33:11.344Z,98688.59
2022-10-25T20:35:39.385Z,98690.06
2022-10-25T20:38:06.529Z,98693.13
2022-10-25T20:40:34.050Z,98688.28
2022-10-25T20:43:01.025Z,98686.66
2022-10-25T20:45:29.391Z,98694.84
2022-10-25T20:47:59.797Z,98687.31
2022-10-25T20:50:27.680Z,98692.88
2022-10-25T20:53:10.749Z,98688.22
2022-10-25T20:55:37.982Z,98703.91
2022-10-25T20:58:04.814Z,98693.19
2022-10-25T21:00:32.391Z,98687.63
2022-10-25T21:02:59.625Z,98684.41
2022-10-25T21:05:26.242Z,98688.31
2022-10-25T21:07:53.004Z,98684.81
2022-10-25T21:10:19.962Z,98687.22
2022-10-25T21:12:46.641Z,98689.94
2022-10-25T21:15:13.394Z,98680.66
2022-10-25T21:17:40.120Z,98690.06
2022-10-25T21:20:07.582Z,98686.69
2022-10-25T21:22:34.006Z,98686.50
2022-10-25T21:25:00.392Z,98682.91
2022-10-25T21:27:26.841Z,98681.34
2022-10-25T21:29:53.261Z,98694.13
2022-10-25T21:32:20.091Z,98695.88
2022-10-25T21:34:46.515Z,98693.88
2022-10-25T21:37:13.333Z,98687.78
2022-10-25T21:39:39.747Z,98686.72
2022-10-25T21:42:06.169Z,98691.34
2022-10-25T21:44:32.586Z,98699.03
2022-10-25T21:46:59.016Z,98700.22
2022-10-25T21:49:25.418Z,98698.00
2022-10-25T21:51:51.764Z,98702.31
2022-10-25T21:54:18.243Z,98694.63
2022-10-25T21:56:44.671Z,98701.34
2022-10-25T21:59:11.059Z,98698.50
2022-10-25T22:01:37.492Z,98690.50
2022-10-25T22:04:04.235Z,98686.06
2022-10-25T22:06:30.667Z,98690.38
2022-10-25T22:08:57.511Z,98688.31
2022-10-25T22:11:26.622Z,98690.84
2022-10-25T22:13:59.481Z,98685.78
2022-10-25T22:16:26.411Z,98691.44
2022-10-25T22:19:04.201Z,98692.69
2022-10-25T22:21:36.027Z,98685.94
2022-10-25T22:24:03.393Z,98679.75
2022-10-25T22:26:29.902Z,98685.91
2022-10-25T22:28:58.659Z,98681.97
2022-10-25T22:31:26.556Z,98682.41
2022-10-25T22:33:58.534Z,98681.22
2022-10-25T22:36:30.638Z,98683.84
2022-10-25T22:38:57.697Z,98688.06
2022-10-25T22:41:26.289Z,98691.72
2022-10-25T22:43:53.285Z,98699.34
2022-10-25T22:46:26.171Z,98693.13
2022-10-25T22:48:55.879Z,98688.50
2022-10-25T22:51:24.320Z,98687.00
2022-10-25T22:53:50.865Z,98694.59
2022-10-25T22:56:23.147Z,98692.38
2022-10-25T22:58:51.728Z,98680.47
2022-10-25T23:01:20.910Z,98680.34
2022-10-25T23:03:56.282Z,98697.78
2022-10-25T23:06:25.560Z,98690.56
2022-10-25T23:08:53.366Z,98701.06
2022-10-25T23:11:22.751Z,98705.50
2022-10-25T23:13:49.813Z,98702.97
2022-10-25T23:16:17.431Z,98691.56
2022-10-25T23:18:44.397Z,98690.81
2022-10-25T23:21:23.297Z,98694.81
2022-10-25T23:23:51.467Z,98687.16
2022-10-25T23:26:23.106Z,98693.22
2022-10-25T23:28:50.037Z,98692.91
2022-10-25T23:31:16.802Z,98693.56
2022-10-25T23:33:43.675Z,98693.25
2022-10-25T23:36:15.769Z,98690.88
2022-10-25T23:38:43.195Z,98695.34
2022-10-25T23:41:09.746Z,98687.47
2022-10-25T23:43:36.317Z,98687.03
2022-10-25T23:46:03.587Z,98692.53
2022-10-25T23:48:30.829Z,98686.44
2022-10-25T23:53:31.872Z,98679.16
2022-10-25T23:55:58.267Z,98688.00
2022-10-25T23:58:24.861Z,98688.97
